Date,TemperatureHighF,TemperatureAvgF,TemperatureLowF,DewpointHighF,DewpointAvgF,DewpointLowF,HumidityHigh,HumidityAvg,HumidityLow,PressureMaxIn,PressureMinIn,WindSpeedMaxMPH,WindSpeedAvgMPH,GustSpeedMaxMPH,PrecipitationSumIn
2013-1-1,75.6,65.4,56.8,60.0,57.0,54.0,90,75,56,30.18,29.99,12,2,0,0.00
2013-1-2,78.3,68.8,61.3,66.0,61.9,57.0,89,79,62,30.02,29.92,12,3,0,0.00
2013-1-3,72.6,64.2,57.3,66.0,61.4,54.0,97,91,77,30.14,29.98,16,4,0,0.05
2013-1-4,57.9,55.7,53.1,57.0,54.7,52.0,97,96,95,30.23,30.11,18,8,0,0.14
2013-1-5,71.8,52.1,53.1,62.0,31.4,-99.9,96,70,70,30.26,30.14,13,-157,0,0.01
2013-1-6,78.8,53.8,59.6,68.0,29.5,-99.9,94,67,67,30.17,30.01,12,-199,0,0.09
2013-1-7,66.8,50.7,56.6,61.0,28.8,-99.9,95,71,71,30.18,30.08,18,-180,0,0.08
2013-1-8,78.7,58.6,62.0,70.0,37.9,-99.9,96,72,69,30.18,30.09,11,-168,0,0.00
2013-1-9,79.2,63.3,66.4,72.0,48.5,-99.9,98,79,77,30.26,30.16,8,-105,0,0.03
2013-1-10,81.5,63.8,65.8,70.0,47.4,-99.9,98,74,57,30.27,30.17,15,-108,0,0.00
2013-1-11,80.6,61.3,64.5,69.0,40.3,-99.9,95,68,58,30.22,30.11,11,-148,0,0.00
2013-1-12,81.3,62.2,64.3,68.0,42.7,-99.9,97,68,54,30.16,30.04,7,-128,0,0.00
2013-1-13,82.6,62.4,63.4,67.0,42.8,-99.9,96,68,52,30.12,30.02,12,-127,0,0.00
2013-1-14,80.7,64.9,62.8,66.0,50.0,-99.9,96,73,58,30.14,30.07,10,-85,0,0.01
2013-1-15,81.3,63.8,64.9,66.0,46.3,-99.9,95,70,56,30.11,30.01,10,-109,0,0.00
2013-1-16,81.4,62.6,64.2,66.0,40.9,-99.9,92,64,48,30.06,29.96,9,-130,0,0.00
2013-1-17,77.4,56.7,52.2,68.0,40.4,-99.9,95,72,67,30.05,29.91,23,-101,0,0.00
2013-1-18,64.1,42.5,40.7,57.0,12.5,-99.9,92,58,70,30.24,30.06,22,-236,0,0.00
2013-1-19,71.5,52.4,54.7,61.0,28.4,-99.9,89,64,61,30.25,30.10,17,-174,0,0.09
2013-1-20,71.2,54.1,58.8,62.0,35.5,-99.9,96,72,71,30.14,30.00,14,-135,0,0.01
2013-1-21,74.6,56.3,60.8,61.0,34.5,-99.9,82,64,54,30.05,29.94,12,-142,0,0.00
2013-1-22,63.4,47.4,51.1,55.0,17.9,-99.9,80,50,36,30.23,30.02,16,-174,0,0.00
2013-1-23,65.9,48.7,47.7,46.0,19.7,-99.9,81,47,30,30.32,30.23,12,-138,0,0.00
2013-1-24,74.2,59.3,48.9,53.0,39.5,-99.9,83,57,33,30.29,30.17,13,-46,0,0.25
2013-1-25,77.2,54.6,54.0,57.0,26.4,-99.9,95,53,34,30.27,30.12,7,-155,0,0.00
2013-1-26,74.1,55.6,54.1,56.0,32.1,-99.9,93,59,49,30.23,30.12,8,-138,0,0.00
2013-1-27,76.8,57.0,57.9,63.0,35.3,-99.9,95,65,45,30.27,30.18,18,-142,0,0.57
2013-1-28,75.8,61.2,63.2,64.0,42.7,-99.9,92,69,58,30.30,30.20,13,-115,0,0.06
2013-1-29,84.4,59.0,63.8,70.0,34.9,-99.9,96,65,49,30.21,30.06,12,-179,0,0.26
2013-1-30,82.0,62.9,65.2,66.0,39.4,-99.9,93,62,54,30.08,29.84,19,-147,0,0.00
2013-1-31,70.8,49.5,49.4,65.0,18.3,-99.9,93,45,29,30.19,29.84,21,-145,0,0.10
2013-2-1,67.9,46.9,43.9,38.0,7.9,-99.9,63,33,20,30.31,30.18,14,-170,0,0.00
2013-2-2,71.2,46.9,46.1,49.0,10.1,-99.9,71,40,32,30.27,30.09,12,-214,0,0.00
2013-2-3,68.4,47.8,48.1,50.0,15.9,-99.9,81,47,41,30.15,30.01,16,-190,0,0.00
2013-2-4,70.9,47.6,47.7,46.0,12.6,-99.9,80,42,28,30.10,29.99,10,-195,0,0.00
2013-2-5,75.4,54.7,49.8,54.0,27.6,-99.9,83,51,41,30.06,29.95,9,-139,0,0.00
2013-2-6,78.6,56.1,61.2,63.0,28.4,-99.9,82,56,47,30.07,29.99,8,-187,0,0.00
2013-2-7,78.9,57.5,65.5,64.0,27.0,-99.9,85,53,48,30.03,29.82,15,-207,0,1.67
2013-2-8,78.0,41.2,60.3,64.0,-5.6,-99.9,87,42,49,30.03,29.82,14,-403,0,0.00
2013-2-9,73.9,53.0,55.8,56.0,27.6,-99.9,90,59,47,30.16,30.02,14,-167,0,0.79
2013-2-10,76.6,53.2,58.5,60.0,24.9,-99.9,85,57,50,30.23,30.12,17,-199,0,0.00
2013-2-11,81.8,60.3,61.1,63.0,34.6,-99.9,88,58,50,30.17,30.02,12,-160,0,0.00
2013-2-12,86.5,64.1,64.6,67.0,38.3,-99.9,91,57,37,30.06,29.87,11,-148,0,0.08
2013-2-13,84.1,58.4,63.6,68.0,32.2,-99.9,93,63,56,29.92,29.76,23,-193,0,1.12
2013-2-14,65.4,46.8,55.6,60.0,20.6,-99.9,95,67,75,30.00,29.87,16,-230,0,0.21
2013-2-15,68.6,46.2,51.8,56.0,19.5,-99.9,96,63,53,30.04,29.91,13,-216,0,0.02
2013-2-16,67.8,48.1,48.1,52.0,18.5,-99.9,88,49,32,30.07,29.85,19,-157,0,11.24
2013-2-17,55.7,41.2,39.1,31.0,2.2,-99.9,57,28,14,30.30,30.08,15,-123,0,1.25
2013-2-18,65.8,48.0,38.7,47.0,21.4,-99.9,79,48,28,30.33,30.18,14,-109,0,0.63
2013-2-19,77.0,56.9,52.5,58.0,30.9,-99.9,87,54,43,30.18,30.01,16,-138,0,0.00
2013-2-20,76.8,56.5,59.0,60.0,34.2,-99.9,90,61,47,30.09,29.97,13,-130,0,0.01
2013-2-21,82.2,48.9,58.2,65.0,11.4,-99.9,88,49,43,30.07,29.95,9,-297,0,0.00
2013-2-22,87.3,66.7,65.2,70.0,49.0,-99.9,94,69,42,30.04,29.94,14,-96,0,0.84
2013-2-23,87.6,66.7,70.1,69.0,43.3,-99.9,92,61,39,29.96,29.81,16,-129,0,0.61
2013-2-24,74.0,60.9,64.6,70.0,46.7,-99.9,95,80,84,29.92,29.82,11,-116,0,0.02
2013-2-25,84.6,62.2,64.7,71.0,41.6,-99.9,96,69,48,29.88,29.71,20,-143,0,0.16
2013-2-26,76.4,60.4,65.3,70.0,42.3,-99.9,94,74,74,29.81,29.69,24,-138,0,0.02
2013-2-27,73.3,56.5,56.4,61.0,34.6,-99.9,92,62,52,29.93,29.81,16,-126,0,0.00
2013-2-28,72.2,54.3,53.2,53.0,30.7,-99.9,87,56,37,29.95,29.82,20,-115,0,0.00
2013-3-1,63.9,39.1,50.8,48.0,-2.0,-99.9,81,40,34,29.95,29.86,16,-295,0,0.00
2013-3-2,56.2,43.9,42.5,37.0,15.0,-99.9,63,45,33,29.98,29.90,26,-126,0,0.00
2013-3-3,50.0,37.0,38.3,32.0,8.8,-99.9,72,49,48,30.11,29.95,22,-160,0,0.00
2013-3-4,65.0,44.2,39.0,38.0,10.7,-99.9,75,40,24,30.19,30.07,13,-148,0,0.00
2013-3-5,77.9,56.7,47.7,57.0,29.2,-99.9,81,48,21,30.14,29.96,15,-92,0,0.28
2013-3-6,65.8,50.7,49.1,59.0,20.9,-99.9,91,46,27,30.09,29.88,19,-122,0,0.00
2013-3-7,67.4,48.7,42.0,47.0,25.3,-99.9,80,53,39,30.18,30.08,16,-93,0,0.02
2013-3-8,59.2,37.1,47.0,46.0,6.0,-99.9,87,58,60,30.18,30.12,5,-263,0,0.00
2013-3-11,77.1,72.6,67.7,61.0,58.8,57.0,77,63,52,30.00,29.87,13,4,0,0.00
2013-3-12,70.2,53.2,64.1,66.0,29.6,-99.9,94,69,76,29.90,29.82,16,-198,0,0.41
2013-3-13,73.2,57.8,51.0,43.0,25.7,-99.9,74,38,23,30.11,30.01,21,-75,0,0.02
2013-3-14,64.8,48.2,48.4,31.0,5.1,-99.9,51,26,24,30.23,30.11,19,-170,0,0.13
2013-3-15,53.3,31.5,47.6,42.0,-11.5,-99.9,80,45,62,30.24,30.23,3,-374,0,0.00
2013-3-16,72.6,71.3,70.0,43.0,41.8,41.0,36,34,32,30.11,30.09,7,4,0,0.00
2013-3-17,76.5,53.2,61.0,55.0,13.1,-99.9,74,36,37,30.10,30.00,5,-239,0,0.08
2013-3-18,77.8,69.3,64.3,65.0,52.7,-99.9,83,64,61,30.01,29.87,13,-58,0,0.00
2013-3-19,89.3,78.2,65.0,62.0,57.8,51.0,88,53,27,29.98,29.84,11,4,0,0.00
2013-3-20,74.2,55.4,63.0,67.0,33.3,-99.9,93,69,77,29.93,29.82,9,-178,0,0.33
2013-3-21,71.5,61.7,52.7,43.0,35.6,26.0,65,40,20,29.93,29.83,18,6,0,0.03
2013-3-22,79.0,55.7,50.9,60.0,33.5,-99.9,92,60,37,29.98,29.86,12,-109,0,0.13
2013-3-23,84.9,62.6,62.3,71.0,41.3,-99.9,96,67,50,29.95,29.72,17,-142,0,0.62
2013-3-24,-200.0,0.0,200.0,-99.9,-99.9,-99.9,0,0,100,29.65,29.64,0,-999,0,0.00
2013-3-25,-200.0,0.0,200.0,-99.9,-99.9,-99.9,0,0,100,29.75,29.75,0,-999,0,0.00
2013-3-26,59.2,51.8,45.3,35.0,27.2,16.0,63,41,19,30.20,30.05,23,7,0,6.05
2013-3-27,46.7,40.4,42.0,35.0,17.8,-99.9,65,53,48,30.27,30.18,13,-99,0,0.00
2013-3-28,73.5,59.6,50.9,45.0,27.4,-99.9,68,36,17,30.26,30.13,11,-49,0,0.15
2013-3-29,68.4,49.5,49.9,47.0,25.9,-99.9,83,57,29,30.30,30.22,8,-118,0,0.00
2013-3-30,78.7,68.1,-12.9,53.0,44.9,-99.9,75,48,33,30.23,30.07,11,-30,0,0.00
2013-3-31,80.5,58.5,62.1,56.0,24.1,-99.9,74,42,36,30.13,29.95,14,-181,0,0.64
2013-4-1,78.0,54.8,65.2,65.0,26.8,-99.9,86,58,58,29.99,29.94,22,-204,0,0.00
2013-4-2,82.2,74.9,64.4,63.0,55.8,49.0,91,54,39,30.05,29.97,16,6,0,0.00
2013-4-3,82.0,59.6,63.2,64.0,34.9,-99.9,89,61,47,30.05,29.93,17,-156,0,0.95
2013-4-4,70.8,46.8,69.5,67.0,11.4,-99.9,91,60,88,29.92,29.86,13,-327,0,0.00
2013-4-5,74.2,60.5,66.7,66.0,40.2,-99.9,91,67,62,29.85,29.77,19,-135,0,0.03
2013-4-6,55.1,11.0,55.1,52.0,-69.5,-99.9,88,18,88,30.01,30.00,7,-798,0,0.00
2013-4-7,73.4,62.8,64.7,62.0,44.0,-99.9,90,64,59,30.12,30.11,13,-93,0,0.00
2013-4-8,81.8,72.2,65.2,64.0,55.5,-99.9,91,61,48,30.11,30.01,11,-30,0,0.00
2013-4-9,80.7,67.7,64.8,67.0,52.2,-99.9,94,68,49,30.13,30.04,13,-55,0,0.00
2013-4-10,83.7,61.5,64.1,67.0,44.3,-99.9,94,72,54,30.09,30.03,13,-115,0,0.00
2013-4-11,72.9,72.4,72.0,70.0,70.0,70.0,93,92,91,29.94,29.94,4,3,0,0.00
2013-4-12,83.7,79.6,74.6,73.0,70.9,69.0,91,75,65,29.86,29.76,24,8,0,0.00
2013-4-13,76.1,64.1,70.9,70.0,48.3,-99.9,91,76,81,29.92,29.83,4,-120,0,0.00
2013-4-14,70.7,28.2,70.2,65.0,-34.1,-99.9,81,32,81,29.92,29.91,6,-598,0,0.00
2013-4-15,89.7,75.9,66.7,67.0,55.9,-99.9,86,57,46,30.04,29.91,22,-49,0,0.08
2013-4-16,83.1,70.2,68.3,71.0,54.3,-99.9,95,71,57,30.11,30.01,19,-60,0,0.24
2013-4-17,82.4,67.1,66.1,69.0,52.0,-99.9,97,73,53,30.11,30.01,18,-78,0,2.45
2013-4-18,90.1,79.3,68.0,70.0,64.9,-99.9,95,66,45,30.02,29.91,14,-12,0,0.09
2013-4-19,89.5,75.9,72.7,73.0,64.7,-99.9,92,75,51,29.98,29.86,16,-31,0,0.01
2013-4-20,75.2,63.2,59.0,70.0,53.4,-99.9,91,80,76,30.11,29.91,17,-47,0,0.01
2013-4-21,76.6,61.9,59.4,70.0,48.4,-99.9,96,81,77,30.10,29.98,14,-83,0,0.00
2013-4-22,77.9,58.3,64.3,68.0,37.9,-99.9,96,74,61,30.04,29.96,22,-147,0,0.18
2013-4-23,77.1,64.5,62.3,65.0,50.1,-99.9,96,72,53,30.08,29.97,17,-60,0,0.73
2013-4-24,71.8,55.9,60.0,64.0,43.6,-99.9,95,82,73,30.11,30.04,8,-97,0,0.00
2013-4-25,70.6,35.3,70.6,64.0,-18.0,-99.9,79,40,79,30.12,30.11,0,-500,0,0.00
2013-4-29,74.4,74.4,74.4,67.0,67.0,67.0,78,78,78,29.98,29.98,3,3,0,0.00
2013-5-3,79.6,69.1,69.0,67.0,58.7,-99.9,92,78,62,29.73,0.00,25,-33,0,0.06
2013-5-4,82.9,68.7,67.6,70.0,56.5,-99.9,96,77,59,29.75,29.62,23,-59,0,0.04
2013-5-5,77.9,66.2,60.8,67.0,43.7,-99.9,92,54,27,29.89,29.71,18,-47,0,2.04
2013-5-6,79.0,65.0,61.7,60.0,43.5,-99.9,83,55,34,29.96,29.85,15,-61,0,0.00
2013-5-7,76.8,62.8,58.8,61.0,41.8,-99.9,85,60,47,30.01,29.92,20,-71,0,0.00
2013-5-8,83.4,69.5,62.0,62.0,53.8,-99.9,90,64,37,30.10,29.98,14,-26,0,0.00
2013-5-9,89.0,69.9,63.9,65.0,49.4,-99.9,90,60,25,30.11,30.03,13,-64,0,0.00
2013-5-10,91.5,74.3,67.0,71.0,60.6,-99.9,93,71,42,30.10,29.95,11,-40,0,0.07
2013-5-11,88.8,73.1,70.5,71.0,58.0,-99.9,92,69,52,30.01,29.92,24,-58,0,0.00
2013-5-12,87.5,73.7,70.1,71.0,57.2,-99.9,90,65,50,30.00,29.89,16,-51,0,0.00
2013-5-13,84.0,69.3,67.2,67.0,48.3,-99.9,89,58,30,30.09,29.95,13,-62,0,0.00
2013-5-14,81.5,65.7,60.6,58.0,40.1,-99.9,81,50,28,30.17,30.08,13,-82,0,0.00
2013-5-15,84.0,64.9,63.9,61.0,38.2,-99.9,90,52,31,30.17,30.05,14,-118,0,0.00
2013-5-16,87.0,67.3,65.3,64.0,43.2,-99.9,86,56,33,30.09,29.97,13,-115,0,0.00
2013-5-17,88.2,74.7,67.6,69.0,59.5,-99.9,89,65,36,30.06,29.99,20,-19,0,1.43
2013-5-18,93.9,68.6,69.6,71.0,45.2,-99.9,91,61,37,30.07,29.96,16,-129,0,0.00
2013-5-19,89.5,70.4,69.5,72.0,56.3,-99.9,92,74,46,30.05,29.95,16,-74,0,0.68
2013-5-20,90.3,71.5,69.4,73.0,58.0,-99.9,95,75,41,30.04,29.94,17,-63,0,0.05
2013-5-21,82.8,68.4,69.2,71.0,58.3,-99.9,96,82,61,30.00,29.90,9,-62,0,0.43
2013-5-22,88.8,73.1,69.2,73.0,65.0,-99.9,96,82,54,29.93,29.87,18,-40,0,0.01
2013-5-23,93.0,73.6,70.9,72.0,57.3,-99.9,96,69,42,29.95,29.86,14,-68,0,0.00
2013-5-24,94.7,76.1,71.6,72.0,52.9,-99.9,93,57,27,30.05,29.91,11,-72,0,0.00
2013-5-25,83.4,71.1,70.0,69.0,50.2,-99.9,91,58,40,30.15,30.03,16,-70,0,0.00
2013-5-26,85.3,58.1,66.1,62.0,21.6,-99.9,85,44,32,30.18,30.10,11,-225,0,0.06
2013-5-27,82.6,54.0,67.7,66.0,14.0,-99.9,89,44,47,30.14,30.06,18,-295,0,0.00
2013-5-28,85.1,73.7,69.1,71.0,59.5,-99.9,91,69,51,30.11,30.02,19,-36,0,0.80
2013-5-29,83.4,72.8,71.9,72.0,61.0,-99.9,93,75,56,30.10,30.02,15,-46,0,0.92
2013-5-30,83.5,72.3,72.5,73.0,59.4,-99.9,92,74,61,30.08,30.00,20,-57,0,0.28
2013-5-31,83.6,72.2,72.0,73.0,58.7,-99.9,92,73,65,30.07,29.99,18,-59,0,0.02
2013-6-1,85.9,71.7,72.9,73.0,57.4,-99.9,93,74,60,30.03,29.92,18,-74,0,0.01
2013-6-2,93.8,70.8,73.2,76.0,52.5,-99.9,96,73,50,29.97,29.83,31,-104,0,0.00
2013-6-3,91.7,77.7,74.2,76.0,69.6,-99.9,95,81,56,29.96,29.83,15,-19,0,0.00
2013-6-4,85.8,73.3,71.6,73.0,64.2,-99.9,95,81,63,30.00,29.89,17,-39,0,0.00
2013-6-5,87.4,67.2,72.1,73.0,53.9,-99.9,96,80,54,29.98,29.87,6,-99,0,0.14
2013-6-6,78.4,65.7,72.1,76.0,51.4,-99.9,97,81,75,29.88,29.61,20,-116,0,0.00
2013-6-7,87.8,68.5,73.9,75.0,47.4,-99.9,91,66,63,29.90,29.71,16,-137,0,0.00
2013-6-8,92.9,72.9,69.2,76.0,57.7,-99.9,96,75,47,30.05,29.90,20,-52,0,0.00
2013-6-9,91.5,73.9,70.6,76.0,59.8,-99.9,97,74,57,30.07,29.98,19,-72,0,0.00
2013-6-10,92.3,52.4,74.2,73.0,10.2,-99.9,94,47,42,30.06,29.96,6,-354,0,0.33
2013-6-11,94.5,56.4,72.7,77.0,23.8,-99.9,96,60,53,30.04,29.96,20,-284,0,0.00
2013-6-12,98.2,49.9,72.5,72.0,1.6,-99.9,95,41,32,30.04,29.94,13,-398,0,0.03
2013-6-13,97.1,60.1,75.6,76.0,20.4,-99.9,88,46,38,29.98,29.84,11,-298,0,0.03
2013-6-14,90.2,82.6,75.9,74.0,72.0,68.0,90,72,48,29.89,29.79,18,8,0,0.00
2013-6-15,87.2,76.5,77.1,76.0,64.0,-99.9,91,74,60,30.03,29.86,20,-49,0,0.00
2013-6-16,88.8,77.6,77.4,75.0,65.3,-99.9,88,73,56,30.05,29.98,15,-38,0,0.00
2013-6-17,91.6,76.9,74.1,79.0,67.9,-99.9,96,82,61,30.04,29.92,9,-41,0,0.00
2013-6-18,93.0,77.1,71.6,76.0,65.9,-99.9,96,77,52,30.03,29.90,10,-40,0,0.00
2013-6-19,91.9,82.4,74.6,76.0,73.5,70.0,94,76,52,29.99,29.90,12,3,0,0.00
2013-6-20,95.6,80.2,71.9,76.0,72.8,70.0,94,79,47,30.06,29.95,12,3,0,0.00
2013-6-21,93.1,66.9,72.1,75.0,48.1,-99.9,96,72,52,30.08,29.99,13,-138,0,0.00
2013-6-22,90.5,76.2,72.6,76.0,63.4,-99.9,96,74,40,30.08,30.00,12,-42,0,0.00
2013-6-23,92.1,72.1,74.4,74.0,55.2,-99.9,93,70,47,30.11,30.03,12,-94,0,0.00
2013-6-24,89.9,74.1,74.7,74.0,55.7,-99.9,93,66,49,30.14,30.04,12,-87,0,0.00
2013-6-25,91.2,81.4,74.6,75.0,72.8,69.0,94,76,53,30.12,29.99,15,4,0,0.00
2013-6-26,93.8,73.1,75.6,75.0,55.5,-99.9,93,69,45,30.04,29.96,24,-94,0,0.00
2013-6-27,96.1,77.6,73.9,75.0,62.0,-99.9,92,68,40,30.00,29.88,11,-55,0,0.00
2013-6-28,91.1,79.3,72.9,75.0,73.1,68.0,94,82,56,29.92,29.80,22,5,0,0.11
2013-6-29,92.1,75.6,75.1,75.0,58.5,-99.9,92,68,48,29.84,29.74,10,-75,0,0.01
2013-6-30,91.6,38.4,75.2,74.0,-17.5,-99.9,92,37,51,29.84,29.77,10,-520,0,0.00
2013-7-1,84.0,52.6,72.9,75.0,18.3,-99.9,94,59,70,29.98,29.82,14,-308,0,0.00
2013-7-2,84.7,67.2,72.5,77.0,51.8,-99.9,96,78,70,30.06,29.93,11,-117,0,0.02
2013-7-3,90.3,71.1,72.3,78.0,59.6,-99.9,96,81,61,30.09,30.02,12,-76,0,0.00
2013-7-4,88.6,72.1,70.8,74.0,58.4,-99.9,96,76,53,30.12,30.03,19,-73,0,0.00
2013-7-5,88.0,74.8,74.2,78.0,61.7,-99.9,95,75,57,30.12,30.02,18,-62,0,0.01
2013-7-6,88.4,75.4,74.6,74.0,60.4,-99.9,93,71,53,30.08,30.00,17,-61,0,2.49
2013-7-7,89.0,62.9,75.3,74.0,30.0,-99.9,93,53,45,30.10,30.00,13,-235,0,2.45
2013-7-8,88.0,51.2,77.6,76.0,5.6,-99.9,92,43,62,30.12,30.04,16,-388,0,0.00
2013-7-9,90.1,69.6,75.4,74.0,44.9,-99.9,94,60,45,30.12,30.02,16,-148,0,1.09
2013-7-10,91.2,76.1,75.2,74.0,59.8,-99.9,93,68,45,30.05,29.93,12,-52,0,0.20
2013-7-11,92.8,76.8,75.1,75.0,64.1,-99.9,91,73,50,30.00,29.87,16,-46,0,0.00
2013-7-12,90.3,71.6,75.5,76.0,53.8,-99.9,91,70,50,29.91,29.85,11,-108,0,0.16
2013-7-13,89.3,71.2,73.7,74.0,53.4,-99.9,93,69,47,29.96,29.86,12,-98,0,1.44
2013-7-14,89.3,74.3,72.0,75.0,66.9,-99.9,95,84,62,30.06,29.93,12,-29,0,0.00
2013-7-15,84.7,74.4,71.8,76.0,64.5,-99.9,96,80,68,30.08,29.98,17,-43,0,0.00
2013-7-16,87.6,71.0,73.4,75.0,57.4,-99.9,95,77,56,30.12,30.06,18,-81,0,2.17
2013-7-17,86.5,75.1,74.5,76.0,66.2,-99.9,96,82,62,30.12,30.04,19,-37,0,0.00
2013-7-18,85.3,74.8,73.9,75.0,64.7,-99.9,95,79,59,30.08,30.00,10,-40,0,0.16
2013-7-19,90.1,72.8,72.4,76.0,60.8,-99.9,96,78,60,30.09,29.98,10,-64,0,0.00
2013-7-20,94.0,69.4,72.1,78.0,52.6,-99.9,97,74,56,30.06,29.96,9,-118,0,0.00
2013-7-21,93.1,74.2,74.1,77.0,60.2,-99.9,92,74,53,30.08,29.97,18,-73,0,0.25
2013-7-22,90.6,76.0,73.9,77.0,67.8,-99.9,94,82,58,30.07,30.01,13,-41,0,0.00
2013-7-23,83.2,74.7,74.2,77.0,67.5,-99.9,95,85,75,30.04,29.90,18,-30,0,0.00
2013-7-24,89.0,76.3,76.0,77.0,64.7,-99.9,94,77,58,29.94,29.83,15,-49,0,0.27
2013-7-25,84.1,76.3,74.4,76.0,67.0,-99.9,92,81,71,29.93,29.82,15,-39,0,0.00
2013-7-26,91.7,77.0,75.5,78.0,63.7,-99.9,95,74,59,29.96,29.89,10,-63,0,0.00
2013-7-27,93.3,79.0,76.2,78.0,68.9,-99.9,96,78,54,29.95,29.84,12,-31,0,0.00
2013-7-28,96.1,75.2,71.7,74.0,61.4,-99.9,95,74,35,30.02,29.89,29,-54,0,0.12
2013-7-29,94.9,75.6,73.5,76.0,64.6,-99.9,96,79,50,30.11,29.98,10,-52,0,0.00
2013-7-30,93.2,76.4,76.7,76.0,58.2,-99.9,96,67,40,30.13,30.03,11,-84,0,0.45
2013-7-31,95.6,76.5,74.8,78.0,62.5,-99.9,95,74,43,30.09,29.96,13,-66,0,0.00
2013-8-1,94.9,74.4,75.0,77.0,63.3,-99.9,95,79,49,30.03,29.91,12,-56,0,0.00
2013-8-2,91.7,77.7,75.2,77.0,64.3,-99.9,95,73,51,29.99,29.90,13,-52,0,0.00
2013-8-3,90.8,74.8,74.8,77.0,62.6,-99.9,95,77,56,30.04,29.95,13,-63,0,0.00
2013-8-4,88.9,74.6,75.5,78.0,62.5,-99.9,95,79,65,30.04,29.93,18,-70,0,0.00
2013-8-5,96.6,79.3,75.4,78.0,70.0,-99.9,94,79,42,29.97,29.86,12,-23,0,0.21
2013-8-6,94.0,76.5,74.5,78.0,62.4,-99.9,96,74,55,29.93,29.85,12,-72,0,0.00
2013-8-7,91.5,79.5,77.8,78.0,68.1,-99.9,94,76,59,29.93,29.87,13,-40,0,0.00
2013-8-8,92.2,76.6,76.7,77.0,60.4,-99.9,94,70,50,30.01,29.91,12,-77,0,0.52
2013-8-9,92.6,77.7,76.6,77.0,62.8,-99.9,93,71,54,30.03,29.93,19,-62,0,0.00
2013-8-10,96.4,77.7,75.1,77.0,60.0,-99.9,90,66,48,30.08,29.99,12,-75,0,0.21
2013-8-11,98.9,82.3,76.7,79.0,69.7,-99.9,95,72,40,30.11,30.01,8,-24,0,0.00
2013-8-12,92.9,80.4,76.9,76.0,66.3,-99.9,93,69,49,30.08,29.95,12,-41,0,0.00
2013-8-13,100.3,82.0,76.6,76.0,64.2,-99.9,91,64,38,30.01,29.87,9,-52,0,0.00
2013-8-14,95.5,74.8,76.9,77.0,58.6,-99.9,90,71,51,29.97,29.85,23,-88,0,0.10
2013-8-15,95.7,77.0,76.9,77.0,59.7,-99.9,92,68,41,29.99,29.87,14,-79,0,0.18
2013-8-16,95.4,75.8,74.0,77.0,60.5,-99.9,91,71,45,30.02,29.91,11,-74,0,0.04
2013-8-17,95.5,76.0,74.9,80.0,62.6,-99.9,96,76,54,30.05,29.94,13,-74,0,0.27
2013-8-18,89.6,76.5,76.6,77.0,61.7,-99.9,94,72,54,30.06,29.96,14,-72,0,0.85
2013-8-19,91.3,76.6,76.5,78.0,63.9,-99.9,95,75,61,30.05,29.93,13,-62,0,0.00
2013-8-20,92.3,80.2,77.1,77.0,66.6,-99.9,94,71,46,30.06,29.95,20,-39,0,1.48
2013-8-21,89.4,72.5,75.0,78.0,57.6,-99.9,94,76,62,30.07,30.00,18,-96,0,0.28
2013-8-22,88.9,76.1,76.5,78.0,67.8,-99.9,96,84,67,30.05,29.95,14,-43,0,0.00
2013-8-23,91.5,74.3,74.7,79.0,64.1,-99.9,97,83,59,29.99,29.91,18,-60,0,0.21
2013-8-24,94.6,71.3,74.0,79.0,57.8,-99.9,97,79,54,30.07,29.96,23,-96,0,0.17
2013-8-25,84.3,68.9,74.3,77.0,53.6,-99.9,97,78,74,30.11,30.04,12,-116,0,0.19
2013-8-26,87.4,70.3,74.4,75.0,50.5,-99.9,95,68,56,30.10,29.97,16,-124,0,3.14
2013-8-27,87.2,71.5,74.4,75.0,52.0,-99.9,96,66,54,30.03,29.95,18,-104,0,0.07
2013-8-28,89.8,76.9,73.8,74.0,60.4,-99.9,92,65,42,30.02,29.93,12,-51,0,0.02
2013-8-29,95.7,78.7,75.2,74.0,62.2,-99.9,89,66,40,29.99,29.88,10,-52,0,0.01
2013-8-30,96.5,77.0,76.7,76.0,62.5,-99.9,89,71,47,29.94,29.83,16,-62,0,0.11
2013-8-31,91.8,73.9,73.4,76.0,58.1,-99.9,93,72,55,29.93,29.82,14,-84,0,0.31
2013-9-1,94.1,73.6,73.8,75.0,57.7,-99.9,94,72,51,29.96,29.84,10,-84,0,0.27
2013-9-2,96.3,74.8,74.5,75.0,57.6,-99.9,93,69,40,29.97,29.88,12,-84,0,0.00
2013-9-3,98.2,73.6,74.6,74.0,49.2,-99.9,93,59,34,29.98,29.87,9,-127,0,0.02
2013-9-4,96.2,76.5,76.8,77.0,60.7,-99.9,87,69,50,30.05,29.93,15,-70,0,0.03
2013-9-5,94.9,75.4,75.1,78.0,61.2,-99.9,89,73,55,30.06,29.96,8,-74,0,0.34
2013-9-6,94.3,69.5,71.1,76.0,52.1,-99.9,97,74,47,30.01,29.93,27,-119,0,1.80
2013-9-7,91.0,60.1,71.8,77.0,29.8,-99.9,97,62,58,29.97,29.88,13,-236,0,0.08
2013-9-8,88.4,74.6,73.7,75.0,60.0,-99.9,94,72,55,29.93,29.84,18,-66,0,0.00
2013-9-9,89.5,70.8,74.0,74.0,49.4,-99.9,91,64,49,30.00,29.89,16,-123,0,0.00
2013-9-10,86.9,71.9,75.6,74.0,52.7,-99.9,93,67,52,30.05,29.96,18,-104,0,0.00
2013-9-11,87.4,73.8,75.7,74.0,56.0,-99.9,93,68,53,30.04,29.95,18,-88,0,0.00
2013-9-12,89.2,71.5,75.4,76.0,54.7,-99.9,94,72,61,29.98,29.85,19,-106,0,0.00
2013-9-13,94.4,73.9,74.2,75.0,53.6,-99.9,92,65,47,29.86,29.74,7,-108,0,0.00
2013-9-14,95.8,76.0,77.5,76.0,58.8,-99.9,89,68,48,29.94,29.78,9,-84,0,0.00
2013-9-15,88.5,73.2,77.1,77.0,57.5,-99.9,94,73,61,30.03,29.93,13,-95,0,0.00
2013-9-16,89.0,73.5,74.4,76.0,55.6,-99.9,95,70,49,30.04,29.94,13,-83,0,0.69
2013-9-17,87.6,71.1,75.0,74.0,50.7,-99.9,93,65,51,30.02,29.92,17,-116,0,5.23
2013-9-18,85.6,70.3,74.8,76.0,53.1,-99.9,92,71,62,30.00,29.93,22,-106,0,0.65
2013-9-19,87.5,70.6,74.7,75.0,53.5,-99.9,93,71,57,30.01,29.94,20,-101,0,0.00
2013-9-20,85.9,69.6,73.3,71.0,49.5,-99.9,87,65,57,29.99,29.87,13,-115,0,0.00
2013-9-21,90.4,71.6,73.0,72.0,49.1,-99.9,91,61,40,29.91,29.72,10,-118,0,0.00
2013-9-22,88.6,70.9,73.9,75.0,56.1,-99.9,95,75,61,29.82,29.70,30,-94,0,0.32
2013-9-23,87.9,68.1,72.8,77.0,54.7,-99.9,97,81,67,29.92,29.80,7,-109,0,0.14
2013-9-24,83.1,61.4,73.0,76.0,39.7,-99.9,97,74,76,29.92,29.79,11,-193,0,0.16
2013-9-25,80.7,65.2,73.3,74.0,46.3,-99.9,96,73,74,29.81,29.73,16,-144,0,0.12
2013-9-26,90.1,73.3,73.0,77.0,57.3,-99.9,96,72,44,29.83,29.72,17,-80,0,0.11
2013-9-27,78.1,65.1,69.7,72.0,50.0,-99.9,95,78,79,29.92,29.81,19,-113,0,0.05
2013-9-28,81.8,65.9,70.9,72.0,46.9,-99.9,95,70,60,29.97,29.87,16,-139,0,1.70
2013-9-29,85.9,70.2,70.3,72.0,54.5,-99.9,94,71,51,29.95,29.86,19,-82,0,0.05
2013-9-30,87.6,67.9,71.0,73.0,47.8,-99.9,92,67,50,29.98,29.87,14,-127,0,0.05
2013-10-1,88.6,71.9,74.0,71.0,54.2,-99.9,88,67,50,30.03,29.94,14,-86,0,1.46
2013-10-2,86.7,70.2,71.4,71.0,50.7,-99.9,89,65,52,30.03,29.95,17,-100,0,0.12
2013-10-3,87.0,71.2,71.8,74.0,53.7,-99.9,89,68,56,30.03,29.94,9,-94,0,0.00
2013-10-4,89.0,68.9,73.8,74.0,48.1,-99.9,94,66,51,30.04,29.95,15,-132,0,0.00
2013-10-5,86.3,69.2,72.8,73.0,48.4,-99.9,93,66,50,30.02,29.92,14,-126,0,0.57
2013-10-6,92.2,69.8,74.1,76.0,52.5,-99.9,96,73,53,29.94,29.81,23,-116,0,0.00
2013-10-7,84.9,68.8,72.0,76.0,55.8,-99.9,95,80,72,29.83,29.70,13,-94,0,0.01
2013-10-8,88.2,69.2,73.3,74.0,53.7,-99.9,96,76,59,29.91,29.73,17,-103,0,0.71
2013-10-9,78.0,63.3,67.6,70.0,46.6,-99.9,92,74,73,30.00,29.88,17,-118,0,0.00
2013-10-10,83.8,66.8,65.6,69.0,50.0,-99.9,93,70,55,30.02,29.92,14,-91,0,0.00
2013-10-11,86.1,68.2,68.4,68.0,47.5,-99.9,92,63,48,30.00,29.89,8,-107,0,0.00
2013-10-12,88.6,69.6,70.0,69.0,45.0,-99.9,93,56,29,30.00,29.92,6,-108,0,0.10
2013-10-13,83.6,67.7,69.8,66.0,43.9,-99.9,87,57,44,30.04,29.95,12,-114,0,0.00
2013-10-14,83.6,66.7,68.7,69.0,48.6,-99.9,91,68,55,30.00,29.89,15,-102,0,0.00
2013-10-15,80.9,62.9,68.1,72.0,45.2,-99.9,96,75,71,29.96,29.85,11,-138,0,0.00
2013-10-16,86.8,65.9,69.9,72.0,45.0,-99.9,97,68,54,29.94,29.85,7,-143,0,0.00
2013-10-17,89.8,68.2,71.7,74.0,48.4,-99.9,97,68,46,29.94,29.84,8,-129,0,0.00
2013-10-18,92.8,70.9,72.7,74.0,50.8,-99.9,95,66,46,29.95,29.84,13,-118,0,0.00
2013-10-19,91.2,70.1,73.5,74.0,47.7,-99.9,91,63,50,29.91,29.81,10,-138,0,0.00
2013-10-20,88.0,67.3,74.0,74.0,45.2,-99.9,92,65,57,29.93,29.81,12,-149,0,0.00
2013-10-21,92.8,69.8,73.8,76.0,51.3,-99.9,95,71,54,29.95,29.85,18,-120,0,0.00
2013-10-22,88.1,67.2,73.0,74.0,44.0,-99.9,96,65,60,29.91,29.76,20,-158,0,0.00
2013-10-23,83.0,57.3,68.1,70.0,18.9,-99.9,90,42,34,29.96,29.75,14,-241,0,0.00
2013-10-24,72.1,54.0,61.6,59.0,24.7,-99.9,84,53,52,30.12,29.97,12,-189,0,0.00
2013-10-25,81.6,60.8,59.8,59.0,33.3,-99.9,85,52,28,30.20,30.11,15,-125,0,0.00
2013-10-26,77.2,59.0,58.1,59.0,35.3,-99.9,87,58,43,30.17,30.05,10,-126,0,0.00
2013-10-27,76.7,58.8,58.5,59.0,36.9,-99.9,89,61,45,30.10,30.02,12,-116,0,0.00
2013-10-28,84.3,61.7,60.1,64.0,38.7,-99.9,87,61,38,30.15,30.06,16,-127,0,0.00
2013-10-29,81.2,64.0,63.2,67.0,44.2,-99.9,93,66,51,30.18,30.10,18,-113,0,0.17
2013-10-30,80.9,63.6,66.3,69.0,43.5,-99.9,92,67,61,30.19,30.07,14,-131,0,0.00
2013-10-31,84.7,66.4,68.9,69.0,44.1,-99.9,91,62,42,30.10,29.94,12,-126,0,0.00
2013-11-1,89.5,69.9,70.6,72.0,47.7,-99.9,94,61,41,29.97,29.81,16,-114,0,0.00
2013-11-2,76.0,59.9,62.3,71.0,44.4,-99.9,93,78,79,29.93,29.76,11,-121,0,0.50
2013-11-3,72.6,52.5,60.7,60.0,21.4,-99.9,93,52,41,30.08,29.91,21,-201,0,0.00
2013-11-4,76.0,56.3,62.0,64.0,31.2,-99.9,85,61,53,30.14,30.06,18,-175,0,0.00
2013-11-5,79.4,58.5,67.7,68.0,34.0,-99.9,92,65,64,30.12,30.05,22,-184,0,0.00
2013-11-6,79.4,61.6,68.2,68.0,40.1,-99.9,93,67,58,30.08,30.00,14,-154,0,0.00
2013-11-7,78.5,59.9,67.0,70.0,38.1,-99.9,96,69,69,30.02,29.92,12,-171,0,0.02
2013-11-8,76.3,53.6,61.9,66.0,27.4,-99.9,93,64,61,30.09,29.95,22,-208,0,0.00
2013-11-9,78.5,59.4,63.2,64.0,35.4,-99.9,88,61,52,30.15,30.06,14,-156,0,0.00
2013-11-10,79.0,60.2,62.5,67.0,40.4,-99.9,94,70,61,30.13,30.05,13,-141,0,0.00
2013-11-11,80.5,61.5,64.0,68.0,40.9,-99.9,95,67,51,30.13,30.03,15,-135,0,0.00
2013-11-12,80.7,60.8,64.5,67.0,38.3,-99.9,95,64,53,30.08,29.96,11,-149,0,0.00
2013-11-13,66.7,49.7,53.1,59.0,25.8,-99.9,84,61,57,30.28,30.04,32,-154,0,0.00
2013-11-14,73.7,53.8,52.3,58.0,27.6,-99.9,88,57,44,30.27,30.15,14,-162,0,0.00
2013-11-15,77.0,51.6,61.8,66.0,21.4,-99.9,92,60,60,30.17,30.05,7,-250,0,0.04
2013-11-16,74.9,56.6,67.3,72.0,35.6,-99.9,96,75,84,30.10,30.00,10,-190,0,0.09
2013-11-17,86.6,61.0,67.7,72.0,33.9,-99.9,97,61,52,30.05,29.95,12,-204,0,0.00
2013-11-18,82.8,64.6,70.8,70.0,42.9,-99.9,93,66,59,30.00,29.87,8,-160,0,0.00
2013-11-19,78.3,56.1,64.1,69.0,28.7,-99.9,93,60,48,29.95,29.84,14,-200,0,0.00
2013-11-20,77.9,55.4,63.8,70.0,29.3,-99.9,95,66,74,30.07,29.93,16,-223,0,0.02
2013-11-21,76.7,54.9,69.2,71.0,29.6,-99.9,95,70,73,30.16,30.06,16,-225,0,0.19
2013-11-22,77.3,59.3,69.3,71.0,36.9,-99.9,94,69,69,30.17,30.07,13,-178,0,0.02
2013-11-23,84.5,63.3,66.7,68.0,40.3,-99.9,92,63,51,30.07,29.96,6,-149,0,0.00
2013-11-24,69.4,52.0,60.3,66.0,28.1,-99.9,90,64,69,30.20,29.99,27,-173,0,0.00
2013-11-25,72.7,53.4,63.3,62.0,25.3,-99.9,84,57,51,30.22,30.04,20,-197,0,0.00
2013-11-26,81.4,58.1,66.6,72.0,30.6,-99.9,95,63,71,30.04,29.70,18,-223,0,0.01
2013-11-27,74.5,44.9,42.2,71.0,16.4,-99.9,94,60,66,30.17,29.65,22,-228,0,0.09
2013-11-28,64.8,42.8,37.6,51.0,16.6,-99.9,87,59,53,30.31,30.17,17,-183,0,0.00
2013-11-29,70.4,50.9,49.6,57.0,29.3,-99.9,93,65,60,30.33,30.25,19,-143,0,0.00
2013-11-30,73.7,53.7,56.5,64.0,32.6,-99.9,96,70,65,30.27,30.15,19,-174,0,0.00
2013-12-1,71.7,53.3,60.9,65.0,33.0,-99.9,97,74,76,30.15,29.94,14,-176,0,0.00
2013-12-2,73.9,50.2,59.9,62.0,20.2,-99.9,97,58,48,29.94,29.78,9,-234,0,0.00
2013-12-3,78.7,56.9,58.3,61.0,31.1,-99.9,91,59,52,29.96,29.85,6,-172,0,0.00
2013-12-4,83.6,60.4,63.6,68.0,36.6,-99.9,92,63,47,30.05,29.93,9,-165,0,0.00
2013-12-5,83.7,62.9,65.6,68.0,40.7,-99.9,91,65,56,30.14,30.04,8,-150,0,0.00
2013-12-6,84.1,63.3,67.9,71.0,40.6,-99.9,96,65,51,30.14,30.05,12,-159,0,0.00
2013-12-7,83.8,63.3,68.8,68.0,37.3,-99.9,91,58,42,30.20,30.10,7,-161,0,0.00
2013-12-8,82.0,63.0,66.9,68.0,40.3,-99.9,95,64,47,30.20,30.07,11,-149,0,0.00
2013-12-9,83.2,62.7,67.6,71.0,39.3,-99.9,94,64,57,30.16,30.05,9,-163,0,0.00
2013-12-10,85.3,63.9,66.7,68.0,37.3,-99.9,88,57,41,30.15,30.02,19,-158,0,0.00
2013-12-11,84.1,60.0,59.9,68.0,36.0,-99.9,89,61,49,30.21,30.11,18,-153,0,0.00
2013-12-12,68.3,49.1,53.3,60.0,17.5,-99.9,94,49,27,30.28,30.16,21,-187,0,0.00
2013-12-13,72.0,52.0,50.5,57.0,25.3,-99.9,83,56,47,30.23,30.09,11,-170,0,0.00
2013-12-14,79.9,58.1,62.2,71.0,31.4,-99.9,90,61,59,30.09,29.89,12,-200,0,0.02
2013-12-15,72.5,53.1,58.0,69.0,28.6,-99.9,94,65,63,30.08,29.83,15,-192,0,0.01
2013-12-16,62.5,45.2,48.7,53.0,19.9,-99.9,87,60,57,30.20,30.07,14,-180,0,0.00
2013-12-17,70.9,49.4,46.9,55.0,25.6,-99.9,86,61,57,30.21,30.11,13,-157,0,0.00
2013-12-18,67.5,49.4,48.8,51.0,22.5,-99.9,84,53,43,30.25,30.15,14,-151,0,0.00
2013-12-19,74.7,52.4,49.9,57.0,25.4,-99.9,86,56,42,30.25,30.14,8,-171,0,0.00
2013-12-20,83.7,58.9,56.5,63.0,33.1,-99.9,93,60,49,30.18,30.07,9,-154,0,0.00
2013-12-21,82.6,62.1,65.3,71.0,40.2,-99.9,96,67,56,30.11,30.00,12,-158,0,0.00
2013-12-22,84.9,62.8,68.8,72.0,39.6,-99.9,96,66,60,30.10,30.03,12,-172,0,0.00
2013-12-23,85.1,61.8,68.5,72.0,35.7,-99.9,97,62,45,30.13,30.03,17,-192,0,0.00
2013-12-24,72.8,46.3,51.6,70.0,12.4,-99.9,94,51,26,30.23,30.04,20,-242,0,0.00
2013-12-25,66.5,49.0,46.8,56.0,31.2,-99.9,92,68,66,30.21,30.14,11,-111,0,0.00
2013-12-26,75.8,65.5,56.6,61.0,58.1,55.0,94,79,58,30.18,30.06,19,7,0,0.00
2013-12-27,69.9,51.2,57.6,63.0,28.9,-99.9,95,72,76,30.22,30.13,16,-191,0,0.00
2013-12-28,74.5,54.7,63.6,70.0,31.2,-99.9,97,72,81,30.19,29.98,12,-211,0,0.05
2013-12-29,76.6,54.0,64.8,72.0,28.3,-99.9,96,70,80,29.97,29.84,14,-235,0,0.28
2013-12-30,68.8,49.1,56.8,64.0,24.3,-99.9,96,66,59,30.16,29.95,13,-201,0,0.02
2013-12-31,69.1,48.6,57.8,54.0,17.9,-99.9,87,53,43,30.27,30.13,13,-213,0,0.00
2014-1-1,63.4,46.6,58.0,62.0,21.8,-99.9,97,71,85,30.21,30.03,14,-228,0,0.01
2014-1-2,78.9,52.0,59.0,71.0,26.3,-99.9,98,70,73,30.02,29.77,22,-233,0,0.36